Latest Coastal Weather Observations for Cape Ferguson

IDQ60701

Issued at 6:02 pm EST Friday 1 July 2016 (issued every 10 minutes, with the page automatically refreshed every 10 minutes)

About coastal observations | Map of coastal stations | Coastal observations for QLD | Marine services | Other Formats
Station Details ID: 032182 Name: CAPE FERGUSON NTC AWS Lat: -19.28 Lon: 147.06 Height: 0.0 m
Data from the previous 72 hours. | See also: Recent months for locations in Queensland
Date/Time
EST
Temp
°C
Wind Pressure Rain since
9am
mm
Weather Cloud Vis
km
Sea
Height
m
Swell
Dir  Spd
kts
Gust
kts
hPa Trend Height
m
Period
s
Dir
01/06:00pm 23.6 ENE 8 9 1017.9 - - - - - - - - -
01/05:30pm 23.6 ENE 8 10 1017.6 - - - - - - - - -
01/05:00pm 23.5 ENE 9 11 1017.3 - - - - - - - - -
01/04:30pm 23.3 ENE 11 12 1016.9 - - - - - - - - -
01/04:00pm 23.1 ENE 10 13 1016.7 - - - - - - - - -
01/03:30pm 23.0 ENE 9 11 1016.7 - - - - - - - - -
01/03:00pm 22.8 ENE 9 10 1016.8 - - - - - - - - -
01/02:30pm 22.8 ENE 7 9 1017.1 - - - - - - - - -
01/02:00pm 22.7 ENE 9 11 1017.3 - - - - - - - - -
01/01:30pm 23.1 ENE 6 8 1017.6 - - - - - - - - -
01/01:00pm 23.1 ENE 4 6 1017.9 - - - - - - - - -
01/12:30pm 22.6 ESE 4 5 1018.4 - - - - - - - - -
01/12:00pm 22.6 ESE 5 6 1018.9 - - - - - - - - -
01/11:30am 22.2 SE 7 8 1019.4 - - - - - - - - -
01/11:00am 22.1 SE 6 8 1019.8 - - - - - - - - -
01/10:30am 22.0 SE 5 6 1020.0 - - - - - - - - -
01/10:00am 22.8 W 1 2 1020.2 - - - - - - - - -
01/09:30am 21.4 W 2 4 1020.3 - - - - - - - - -
01/09:00am 21.2 SSW 2 4 1020.3 - - - - - - - - -
01/08:30am 21.2 SSW 1 3 1020.2 - - - - - - - - -
01/08:00am 20.7 W 4 6 1020.1 - - - - - - - - -
01/07:30am 20.4 W 5 6 1019.7 - - - - - - - - -
01/07:00am 20.5 W 3 4 1019.3 - - - - - - - - -
01/06:30am 20.7 WNW 3 5 1018.9 - - - - - - - - -
01/06:00am 20.6 WNW 3 5 1018.6 - - - - - - - - -
01/05:30am 20.5 WNW 3 4 1018.3 - - - - - - - - -
01/05:00am 20.6 W 4 5 1017.9 - - - - - - - - -
01/04:30am 20.8 W 2 3 1017.8 - - - - - - - - -
01/04:00am 20.8 WNW 3 5 1018.0 - - - - - - - - -
01/03:30am 20.7 WNW 3 5 1018.0 - - - - - - - - -
01/03:00am 21.1 S 3 5 1018.0 - - - - - - - - -
01/02:30am 21.2 SW 1 3 1018.2 - - - - - - - - -
01/02:00am 21.3 SW 2 3 1018.3 - - - - - - - - -
01/01:30am 21.5 W 1 3 1018.7 - - - - - - - - -
01/01:00am 21.5 WNW 3 5 1018.9 - - - - - - - - -
01/12:30am 21.5 WNW 3 5 1019.0 - - - - - - - - -
01/12:00am 21.6 SW 2 4 1019.0 - - - - - - - - -
 
Date/Time
EST
Temp
°C
Wind Pressure Rain since
9am
mm
Weather Cloud Vis
km
Sea
Height
m
Swell
Dir  Spd
kts
Gust
kts
hPa Trend Height
m
Period
s
Dir
30/11:30pm 21.7 WNW 4 6 1019.2 - - - - - - - - -
30/11:00pm 21.7 W 3 5 1019.4 - - - - - - - - -
30/10:30pm 21.8 WNW 3 6 1019.4 - - - - - - - - -
30/10:00pm 21.4 WSW 3 5 1019.5 - - - - - - - - -
30/09:30pm 21.6 W 3 4 1019.5 - - - - - - - - -
30/09:00pm 22.6 SE 3 4 1019.5 - - - - - - - - -
30/08:30pm 22.7 E 6 7 1019.5 - - - - - - - - -
30/08:00pm 22.7 ESE 7 9 1019.5 - - - - - - - - -
30/07:30pm 22.7 ESE 9 11 1019.3 - - - - - - - - -
30/07:00pm 22.7 ESE 9 10 1019.0 - - - - - - - - -
30/06:30pm 22.7 ESE 10 12 1018.7 - - - - - - - - -
30/06:00pm 22.8 E 10 12 1018.5 - - - - - - - - -
30/05:30pm 22.8 ESE 8 10 1018.2 - - - - - - - - -
30/05:00pm 22.8 E 8 9 1018.0 - - - - - - - - -
30/04:30pm 22.7 E 9 11 1017.7 - - - - - - - - -
30/04:00pm 22.6 E 8 9 1017.7 - - - - - - - - -
30/03:30pm 22.6 E 6 7 1017.6 - - - - - - - - -
30/03:00pm 22.5 E 4 6 1017.7 - - - - - - - - -
30/02:30pm 22.6 E 4 6 1017.7 - - - - - - - - -
30/02:00pm 22.9 CALM 0 1 1018.0 - - - - - - - - -
30/01:30pm 22.9 W 1 2 1018.2 - - - - - - - - -
30/01:00pm 22.3 S 2 3 1018.6 - - - - - - - - -
30/12:30pm 22.0 SSE 5 6 1019.3 - - - - - - - - -
30/12:00pm 21.8 SSE 5 7 1019.8 - - - - - - - - -
30/11:30am 21.4 SSE 6 8 1020.2 - - - - - - - - -
30/11:00am 21.0 SSE 7 9 1020.4 - - - - - - - - -
30/10:30am 20.4 SSE 7 9 1020.8 - - - - - - - - -
30/10:00am 20.0 S 7 9 1021.0 - - - - - - - - -
30/09:30am 19.9 SSE 7 9 1021.3 - - - - - - - - -
30/09:00am 19.7 S 6 8 1021.3 - - - - - - - - -
30/08:30am 19.2 W 3 5 1021.0 - - - - - - - - -
30/08:00am 19.1 SW 2 7 1020.7 - - - - - - - - -
30/07:30am 19.0 S 9 11 1020.5 - - - - - - - - -
30/07:00am 18.8 S 8 11 1020.3 - - - - - - - - -
30/06:30am 18.7 SSW 3 5 1020.1 - - - - - - - - -
30/06:00am 18.4 WNW 4 8 1019.8 - - - - - - - - -
30/05:30am 18.7 SSE 10 13 1019.8 - - - - - - - - -
30/05:00am 18.7 SSE 9 11 1019.6 - - - - - - - - -
30/04:30am 18.6 S 9 12 1019.7 - - - - - - - - -
30/04:00am 18.4 S 8 12 1019.7 - - - - - - - - -
30/03:30am 18.3 SSE 7 10 1019.9 - - - - - - - - -
30/03:00am 18.2 SW 5 10 1020.1 - - - - - - - - -
30/02:30am 18.2 WSW 6 8 1020.3 - - - - - - - - -
30/02:00am 18.2 W 4 9 1020.6 - - - - - - - - -
30/01:30am 18.5 SSW 4 9 1021.0 - - - - - - - - -
30/01:00am 18.4 SSW 3 8 1021.5 - - - - - - - - -
30/12:30am 18.4 SSW 8 14 1021.7 - - - - - - - - -
30/12:00am 18.1 SSW 7 12 1021.8 - - - - - - - - -
 
Date/Time
EST
Temp
°C
Wind Pressure Rain since
9am
mm
Weather Cloud Vis
km
Sea
Height
m
Swell
Dir  Spd
kts
Gust
kts
hPa Trend Height
m
Period
s
Dir
29/11:30pm 19.0 SSE 12 15 1021.9 - - - - - - - - -
29/11:00pm 18.9 SSE 13 16 1022.3 - - - - - - - - -
29/10:30pm 19.2 SSE 14 16 1022.3 - - - - - - - - -
29/10:00pm 19.5 SSE 14 17 1022.5 - - - - - - - - -
29/09:30pm 19.5 SSE 13 16 1022.6 - - - - - - - - -
29/09:00pm 20.3 SE 13 15 1022.4 - - - - - - - - -
29/08:30pm 21.1 ESE 14 17 1022.4 - - - - - - - - -
29/08:00pm 21.1 ESE 17 20 1022.2 - - - - - - - - -
29/07:30pm 21.2 ESE 17 21 1021.9 - - - - - - - - -
29/07:00pm 20.9 E 15 19 1021.4 - - - - - - - - -
29/06:30pm 20.9 ESE 15 20 1021.1 - - - - - - - - -
29/06:00pm 21.0 E 13 16 1021.0 - - - - - - - - -
29/05:30pm 20.6 E 13 17 1020.9 - - - - - - - - -
29/05:00pm 20.3 E 11 14 1020.9 - - - - - - - - -
29/04:30pm 20.1 E 13 16 1020.8 - - - - - - - - -
29/04:00pm 20.1 E 12 14 1020.8 - - - - - - - - -
29/03:30pm 20.1 E 11 14 1020.8 - - - - - - - - -
29/03:00pm 20.1 E 9 13 1020.7 - - - - - - - - -
29/02:30pm 19.7 ESE 6 9 1020.6 - - - - - - - - -
29/02:00pm 19.5 SE 7 9 1020.8 - - - - - - - - -
29/01:30pm 19.3 SSE 9 12 1021.2 - - - - - - - - -
29/01:00pm 18.6 SSE 9 13 1021.6 - - - - - - - - -
29/12:30pm 18.0 SSE 9 12 1022.2 - - - - - - - - -
29/12:00pm 17.6 SSE 8 11 1022.9 - - - - - - - - -
29/11:30am 17.3 SSE 7 12 1023.4 - - - - - - - - -
29/11:00am 17.0 SSE 8 11 1023.6 - - - - - - - - -
29/10:30am 16.5 SSE 11 15 1023.8 - - - - - - - - -
29/10:00am 16.5 SSE 13 17 1023.9 - - - - - - - - -
29/09:30am 16.0 SSE 13 17 1023.8 - - - - - - - - -
29/09:00am 15.8 SSE 14 17 1023.9 - - - - - - - - -
29/08:30am 15.6 S 15 18 1023.9 - - - - - - - - -
29/08:00am 15.6 S 12 15 1023.6 - - - - - - - - -
29/07:30am 15.5 S 13 17 1023.2 - - - - - - - - -
29/07:00am 15.5 S 12 16 1023.0 - - - - - - - - -
29/06:30am 15.9 SSE 12 17 1022.9 - - - - - - - - -
29/06:00am 15.8 S 11 15 1022.7 - - - - - - - - -
29/05:30am 16.1 S 12 16 1022.5 - - - - - - - - -
29/05:00am 16.1 S 11 17 1022.6 - - - - - - - - -
29/04:30am 16.1 S 11 14 1022.5 - - - - - - - - -
29/04:00am 16.0 S 11 14 1022.5 - - - - - - - - -
29/03:30am 16.1 S 14 17 1022.6 - - - - - - - - -
29/03:00am 16.3 S 12 17 1022.7 - - - - - - - - -
29/02:30am 16.3 S 12 15 1022.7 - - - - - - - - -
29/02:00am 16.8 S 11 15 1022.8 - - - - - - - - -
29/01:30am 17.1 S 16 19 1022.9 - - - - - - - - -
29/01:00am 18.1 SSE 15 18 1023.2 - - - - - - - - -
29/12:30am 18.6 SSE 16 18 1023.1 - - - - - - - - -
29/12:00am 19.0 SSE 14 17 1023.2 - - - - - - - - -
 
Date/Time
EST
Temp
°C
Wind Pressure Rain since
9am
mm
Weather Cloud Vis
km
Sea
Height
m
Swell
Dir  Spd
kts
Gust
kts
hPa Trend Height
m
Period
s
Dir
28/11:30pm 19.3 SSE 13 16 1023.1 - - - - - - - - -
28/11:00pm 19.8 S 13 16 1023.0 - - - - - - - - -
28/10:30pm 19.6 S 11 14 1023.1 - - - - - - - - -
28/10:00pm 20.0 S 13 17 1022.9 - - - - - - - - -
28/09:30pm 20.4 S 11 15 1022.7 - - - - - - - - -
28/09:00pm 20.4 SSW 10 14 1022.4 - - - - - - - - -
28/08:30pm 19.2 W 4 8 1022.0 - - - - - - - - -
28/08:00pm 20.6 SSW 8 10 1021.7 - - - - - - - - -
28/07:30pm 20.8 SSW 8 11 1021.5 - - - - - - - - -
28/07:00pm 21.4 S 13 15 1021.2 - - - - - - - - -
28/06:30pm 22.0 SSE 14 17 1020.8 - - - - - - - - -

Other Formats:

Comma delimited format used in spreadsheet applications
http://www.bom.gov.au/fwo/IDQ60701/IDQ60701.94297.axf

JavaScript Object Notation format (JSON) in row-major order
http://www.bom.gov.au/fwo/IDQ60701/IDQ60701.94297.json